Archival Weather

Teniente Col Carmelo Peralta

Teniente Col Carmelo Peralta, Paraguay (SGCO)

Report from: Wednesday, December 6, 2023 3:00 PM -03
Current time: Tuesday, April 23, 2024 4:54 AM -04

Current weather – Weather history – Daily summaries
Weather forecast

Present weatherThunderstorm
Temperature34.0°C (93.2°F)
Heat index40.6°C (105.1°F)
Dew point24.0°C (75.2°F)
Winds 10 kts (5.1 m/s, 11.5 mph) North-Northwest (330°)
Visibility6.2 mi. (10 km)
Clouds Few clouds with cumulonimbus 4,000 ft. (1,219 m)
Ceiling: Overcast 7,000 ft. (2,134 m)
Altimeter29.74 in.Hg (1007 mB)
Relative humidity56 %
Density altitude2,769 ft. (844 m)
Flight conditions Visual Meteorological Conditions
Raw dataSGCO 061800Z 33010KT 9999 TS FEW040CB OVC070 34/24 Q1007
An error has occurred. This application may no longer respond until reloaded. Reload 🗙